Flight Track Log - Related Links

Times and Time Zones

All times are in EDT time to prevent confusion due to time zone crossing. See the SWA1259 flight status page for this flight to view local times or setup timezone preferences in your user account.

Time Position Orientation Groundspeed Altitude Reporting Facility
EDT Latitude Longitude Course Direction KTS MPH feet Rate Location/Type
Sat 06:16:14 PM 29.9761 -90.2539 204° Southwest 164 189 800  Level Houston Center
Sat 06:17:32 PM 29.9150 -90.2856 204° Southwest 218 251 3,600 2,374 Climbing Houston Center
Sat 06:18:33 PM 29.9547 -90.3556 303° West 278 320 6,300 3,073 Climbing Houston Center
Sat 06:19:35 PM 30.0131 -90.4133 319° Northwest 276 318 9,900 2,613 Climbing Houston Center
Sat 06:20:37 PM 30.0814 -90.4781 321° Northwest 318 366 11,700 2,537 Climbing Houston Center
Sat 06:21:38 PM 30.1764 -90.5639 322° Northwest 361 415 15,100 2,878 Climbing Houston Center
Sat 06:22:40 PM 30.2603 -90.6378 323° Northwest 375 432 17,600 2,341 Climbing Houston Center
Sat 06:23:41 PM 30.3322 -90.7319 312° West 391 450 19,900 2,098 Climbing Houston Center
Sat 06:24:43 PM 30.3892 -90.8442 300° West 405 466 21,900 1,790 Climbing Houston Center
Sat 06:25:45 PM 30.4492 -90.9594 301° West 418 481 23,600 1,854 Climbing Houston Center
Sat 06:26:46 PM 30.5117 -91.0803 301° West 434 499 25,700 2,000 Climbing Houston Center
Sat 06:27:48 PM 30.5728 -91.2000 301° West 434 499 27,700 1,610 Climbing Houston Center
Sat 06:28:49 PM 30.6347 -91.3219 301° West 438 504 29,000 1,415 Climbing Houston Center
Sat 06:29:51 PM 30.7006 -91.4508 301° West 450 518 30,600 1,742 Climbing Houston Center
Sat 06:30:53 PM 30.7769 -91.6031 300° West 456 525 32,600 1,659 Climbing Houston Center
Sat 06:31:54 PM 30.8383 -91.7264 300° West 444 511 34,000 683 Climbing Houston Center
Sat 06:32:56 PM 30.9000 -91.8489 300° West 440 506 34,000  Level Houston Center
Sat 06:33:57 PM 30.9614 -91.9708 300° West 437 503 34,000 293 Level Houston Center
Sat 06:34:59 PM 31.0261 -92.1008 300° West 438 504 34,600 1,113 Climbing Houston Center
Sat 06:36:01 PM 31.0858 -92.2208 300° West 432 497 36,300 1,463 Climbing Houston Center
Sat 06:37:02 PM 31.1444 -92.3383 300° West 425 489 37,600 829 Climbing Houston Center
Sat 06:38:04 PM 31.1997 -92.4528 299° West 413 475 38,000 195 Climbing Houston Center
Sat 06:39:05 PM 31.2594 -92.5703 301° West 419 482 38,000  Level Houston Center
Sat 06:40:07 PM 31.3164 -92.6872 300° West 418 481 38,000 -49 Level Houston Center
Sat 06:41:08 PM 31.3864 -92.8283 300° West 418 481 37,900  Descending Houston Center
Sat 06:42:10 PM 31.4425 -92.9444 300° West 411 473 38,000 48 Climbing Houston Center
Sat 06:43:12 PM 31.5006 -93.0631 300° West 417 480 38,000  Level Houston Center
Sat 06:44:13 PM 31.5575 -93.1797 300° West 414 476 38,000  Level Houston Center
Sat 06:45:15 PM 31.5997 -93.3153 290° West 421 484 38,000  Level Houston Center
Sat 06:46:16 PM 31.6378 -93.4439 289° West 419 482 38,000  Level Houston Center
Sat 06:47:18 PM 31.6750 -93.5733 289° West 420 483 38,000  Level Houston Center
Sat 06:48:20 PM 31.7172 -93.7167 289° West 420 483 38,000  Level Houston Center
Sat 06:49:21 PM 31.7547 -93.8472 289° West 423 487 38,000  Level Houston Center
Sat 06:50:23 PM 31.7919 -93.9783 289° West 425 489 38,000  Level Houston Center
Sat 06:51:24 PM 31.8325 -94.1219 288° West 423 487 38,000  Level Houston Center
Sat 06:52:26 PM 31.8664 -94.2397 289° West 425 489 38,000  Level Houston Center
Sat 06:53:27 PM 31.9108 -94.3953 289° West 421 484 38,000  Level Houston Center
Sat 06:54:29 PM 31.9472 -94.5253 288° West 422 486 38,000  Level Houston Center
Sat 06:55:31 PM 31.9831 -94.6558 288° West 421 484 38,000  Level Houston Center
Sat 06:56:55 PM 32.0325 -94.8378 288° West 423 487 38,000  Level Fort Worth Center
Sat 06:57:55 PM 32.0706 -94.9667 289° West 423 487 38,000  Level Fort Worth Center
Sat 06:58:55 PM 32.1064 -95.0981 288° West 418 481 38,000  Level Fort Worth Center
Sat 06:59:55 PM 32.1422 -95.2272 288° West 418 481 38,000  Level Fort Worth Center
Sat 07:00:55 PM 32.1758 -95.3567 287° West 418 481 38,000  Level Fort Worth Center
Sat 07:01:55 PM 32.2111 -95.4858 288° West 418 481 38,000  Level Fort Worth Center
Sat 07:02:55 PM 32.2486 -95.6275 287° West 418 481 38,000  Level Fort Worth Center
Sat 07:03:55 PM 32.2819 -95.7622 286° West 418 481 38,000  Level Fort Worth Center
Sat 07:04:55 PM 32.3189 -95.8867 289° West 418 481 38,000  Level Fort Worth Center
Sat 07:05:55 PM 32.3539 -96.0214 287° West 418 481 38,000  Level Fort Worth Center
Sat 07:06:55 PM 32.3908 -96.1536 288° West 418 481 38,000  Level Fort Worth Center
Sat 07:07:55 PM 32.4233 -96.2811 287° West 418 481 38,000  Level Fort Worth Center
Sat 07:08:55 PM 32.4578 -96.4139 287° West 418 481 38,000  Level Fort Worth Center
Sat 07:09:55 PM 32.4922 -96.5439 287° West 418 481 38,000  Level Fort Worth Center
Sat 07:10:55 PM 32.5264 -96.6742 287° West 418 481 38,000  Level Fort Worth Center
Sat 07:11:55 PM 32.5583 -96.8047 286° West 418 481 38,000  Level Fort Worth Center
Sat 07:12:55 PM 32.5925 -96.9350 287° West 418 481 38,000  Level Fort Worth Center
Sat 07:13:55 PM 32.6261 -97.0656 287° West 418 481 38,000  Level Fort Worth Center
Sat 07:14:55 PM 32.6578 -97.1986 286° West 423 487 38,000  Level Fort Worth Center
Sat 07:15:55 PM 32.6892 -97.3319 286° West 423 487 38,000  Level Fort Worth Center
Sat 07:16:55 PM 32.7269 -97.4628 289° West 423 487 38,000  Level Fort Worth Center
Sat 07:17:55 PM 32.7603 -97.5936 287° West 423 487 38,000  Level Fort Worth Center
Sat 07:18:55 PM 32.7892 -97.7125 286° West 423 487 38,000  Level Fort Worth Center
Sat 07:19:55 PM 32.8242 -97.8386 288° West 418 481 38,000  Level Fort Worth Center
Sat 07:20:55 PM 32.8550 -97.9697 286° West 418 481 38,000  Level Fort Worth Center
Sat 07:21:55 PM 32.8878 -98.1011 287° West 418 481 38,000  Level Fort Worth Center
Sat 07:22:55 PM 32.9206 -98.2275 287° West 418 481 38,000  Level Fort Worth Center
Sat 07:23:55 PM 32.9531 -98.3542 287° West 412 474 38,000  Level Fort Worth Center
Sat 07:24:55 PM 32.9853 -98.4908 286° West 392 451 38,000  Level Fort Worth Center
Sat 07:25:55 PM 33.0175 -98.6175 287° West 392 451 38,000  Level Fort Worth Center
Sat 07:26:55 PM 33.0475 -98.7467 286° West 402 463 38,000  Level Fort Worth Center
Sat 07:27:55 PM 33.0775 -98.8736 286° West 402 463 38,000  Level Fort Worth Center
Sat 07:28:55 PM 33.1092 -99.0056 286° West 402 463 38,000  Level Fort Worth Center
Sat 07:29:55 PM 33.1408 -99.1328 287° West 402 463 38,000  Level Fort Worth Center
Sat 07:30:55 PM 33.1725 -99.2650 286° West 402 463 38,000  Level Fort Worth Center
Sat 07:31:55 PM 33.2017 -99.3969 285° West 407 468 38,000  Level Fort Worth Center
Sat 07:32:55 PM 33.2331 -99.5294 286° West 412 474 38,000  Level Fort Worth Center
Sat 07:33:55 PM 33.2642 -99.6592 286° West 412 474 38,000  Level Fort Worth Center
Sat 07:34:55 PM 33.2931 -99.7867 285° West 412 474 38,000  Level Fort Worth Center
Sat 07:35:55 PM 33.3239 -99.9169 286° West 412 474 38,000  Level Fort Worth Center
Sat 07:36:55 PM 33.3525 -100.0444 285° West 412 474 38,000  Level Fort Worth Center
Sat 07:37:55 PM 33.3811 -100.1747 285° West 407 468 38,000  Level Fort Worth Center
Sat 07:38:55 PM 33.4094 -100.3000 285° West 401 461 38,000  Level Fort Worth Center
Sat 07:39:55 PM 33.4378 -100.4256 285° West 395 455 38,000  Level Fort Worth Center
Sat 07:40:55 PM 33.4661 -100.5508 285° West 395 455 38,000  Level Fort Worth Center
Sat 07:41:55 PM 33.4942 -100.6814 284° West 395 455 38,000  Level Fort Worth Center
Sat 07:42:55 PM 33.5222 -100.8044 285° West 390 449 38,000  Level Fort Worth Center
Sat 07:43:55 PM 33.5500 -100.9303 285° West 390 449 38,000  Level Fort Worth Center
Sat 07:44:55 PM 33.5817 -101.0611 286° West 400 460 38,000  Level Fort Worth Center
Sat 07:45:55 PM 33.6072 -101.1894 283° West 400 460 38,000  Level Fort Worth Center
Sat 07:46:55 PM 33.6364 -101.3203 285° West 400 460 38,000  Level Fort Worth Center
Sat 07:47:55 PM 33.6658 -101.4514 285° West 400 460 38,000  Level Fort Worth Center
Sat 07:48:55 PM 33.6928 -101.5800 284° West 400 460 38,000  Level Fort Worth Center
Sat 07:49:55 PM 33.7200 -101.7036 285° West 407 468 38,000  Level Fort Worth Center
Sat 07:50:55 PM 33.7508 -101.8375 286° West 414 476 38,000  Level Fort Worth Center
Sat 07:51:55 PM 33.7808 -101.9889 283° West 427 491 38,000  Level Fort Worth Center
Sat 07:52:55 PM 33.8014 -102.1075 282° West 416 479 38,000  Level Fort Worth Center
Sat 07:53:55 PM 33.8356 -102.2544 286° West 416 479 38,000  Level Fort Worth Center
Sat 07:54:55 PM 33.8600 -102.3758 284° West 416 479 38,000  Level Fort Worth Center
Sat 07:55:28 PM 33.8764 -102.4508 285° West 417 480 38,000  Level Albuquerque Center
Sat 07:56:29 PM 33.9036 -102.5844 284° West 414 476 38,000  Level Albuquerque Center
Sat 07:57:31 PM 33.9311 -102.7178 284° West 413 475 38,000  Level Albuquerque Center
Sat 07:58:32 PM 33.9578 -102.8483 284° West 407 468 38,000  Level Albuquerque Center
Sat 07:59:34 PM 33.9861 -102.9789 285° West 404 465 38,000  Level Albuquerque Center
Sat 08:00:36 PM 34.0186 -103.1392 284° West 410 472 38,000  Level Albuquerque Center
Sat 08:01:37 PM 34.0447 -103.2728 283° West 412 474 38,000  Level Albuquerque Center
Sat 08:02:39 PM 34.0700 -103.4083 283° West 413 475 38,000  Level Albuquerque Center
Sat 08:03:40 PM 34.0961 -103.5400 284° West 408 470 38,000  Level Albuquerque Center
Sat 08:04:42 PM 34.1231 -103.6747 284° West 407 468 38,000  Level Albuquerque Center
Sat 08:05:43 PM 34.1486 -103.8114 283° West 412 474 38,000  Level Albuquerque Center
Sat 08:06:45 PM 34.1742 -103.9453 283° West 409 471 38,000  Level Albuquerque Center
Sat 08:07:46 PM 34.2047 -104.0978 284° West 400 460 38,000  Level Albuquerque Center
Sat 08:08:48 PM 34.2286 -104.2294 282° West 398 458 38,000  Level Albuquerque Center
Sat 08:09:49 PM 34.2536 -104.3586 283° West 393 452 38,000  Level Albuquerque Center
Sat 08:10:51 PM 34.2778 -104.4881 283° West 390 449 38,000  Level Albuquerque Center
Sat 08:11:53 PM 34.3033 -104.6178 283° West 391 450 38,000  Level Albuquerque Center
Sat 08:12:54 PM 34.3272 -104.7500 282° West 395 455 38,000  Level Albuquerque Center
Sat 08:13:56 PM 34.3525 -104.8822 283° West 398 458 38,000  Level Albuquerque Center
Sat 08:14:57 PM 34.3767 -105.0136 283° West 397 457 38,000  Level Albuquerque Center
Sat 08:15:59 PM 34.4011 -105.1458 283° West 397 457 38,000  Level Albuquerque Center
Sat 08:17:01 PM 34.4250 -105.2781 282° West 399 459 38,000  Level Albuquerque Center
Sat 08:18:02 PM 34.4489 -105.4103 282° West 398 458 38,000  Level Albuquerque Center
Sat 08:19:04 PM 34.4728 -105.5450 282° West 403 464 38,000  Level Albuquerque Center
Sat 08:20:05 PM 34.4969 -105.6781 282° West 402 463 38,000  Level Albuquerque Center
Sat 08:21:07 PM 34.5244 -105.8350 282° West 403 464 38,000  Level Albuquerque Center
Sat 08:22:09 PM 34.5481 -105.9692 282° West 404 465 38,000  Level Albuquerque Center
Sat 08:23:10 PM 34.5717 -106.1036 282° West 404 465 38,000  Level Albuquerque Center
Sat 08:24:12 PM 34.5919 -106.2219 282° West 407 468 38,000  Level Albuquerque Center
Sat 08:25:13 PM 34.6161 -106.3569 282° West 409 471 38,000  Level Albuquerque Center
Sat 08:26:15 PM 34.6436 -106.5200 282° West 408 470 38,000  Level Albuquerque Center
Sat 08:27:16 PM 34.6650 -106.6544 281° West 407 468 38,000  Level Albuquerque Center
Sat 08:28:18 PM 34.6872 -106.7900 281° West 406 467 38,000  Level Albuquerque Center
Sat 08:29:19 PM 34.7103 -106.9269 282° West 409 471 38,000  Level Albuquerque Center
Sat 08:30:21 PM 34.7331 -107.0611 282° West 405 466 38,000  Level Albuquerque Center
Sat 08:31:22 PM 34.7550 -107.1944 281° West 401 461 38,000  Level Albuquerque Center
Sat 08:32:24 PM 34.7767 -107.3267 281° West 398 458 38,000  Level Albuquerque Center
Sat 08:33:25 PM 34.7981 -107.4603 281° West 399 459 38,000  Level Albuquerque Center
Sat 08:34:27 PM 34.8197 -107.5922 281° West 398 458 38,000  Level Albuquerque Center
Sat 08:35:28 PM 34.8411 -107.7239 281° West 396 456 38,000  Level Albuquerque Center
Sat 08:36:29 PM 34.8669 -107.8800 281° West 399 459 38,000  Level Albuquerque Center
Sat 08:37:31 PM 34.8875 -108.0072 281° West 399 459 38,000  Level Albuquerque Center
Sat 08:38:32 PM 34.9072 -108.1356 281° West 400 460 38,000  Level Albuquerque Center
Sat 08:39:34 PM 34.9303 -108.2856 281° West 402 463 38,000  Level Albuquerque Center
Sat 08:40:35 PM 34.9511 -108.4117 281° West 399 459 38,000  Level Albuquerque Center
Sat 08:41:37 PM 34.9725 -108.5589 280° West 394 453 38,000  Level Albuquerque Center
Sat 08:42:38 PM 34.9922 -108.6853 281° West 394 453 38,000  Level Albuquerque Center
Sat 08:43:39 PM 35.0111 -108.8108 280° West 393 452 38,000  Level Albuquerque Center
Sat 08:44:41 PM 35.0333 -108.9586 280° West 394 453 38,000  Level Albuquerque Center
Sat 08:45:42 PM 35.0525 -109.0844 281° West 394 453 38,000  Level Albuquerque Center
Sat 08:46:44 PM 35.0711 -109.2136 280° West 399 459 38,000  Level Albuquerque Center
Sat 08:47:45 PM 35.0933 -109.3619 280° West 399 459 38,000  Level Albuquerque Center
Sat 08:48:47 PM 35.1111 -109.4906 280° West 399 459 38,000  Level Albuquerque Center
Sat 08:49:48 PM 35.1333 -109.6406 280° West 399 459 38,000  Level Albuquerque Center
Sat 08:50:49 PM 35.1517 -109.7703 280° West 402 463 38,000  Level Albuquerque Center
Sat 08:51:51 PM 35.1708 -109.9008 280° West 405 466 38,000  Level Albuquerque Center
Sat 08:52:52 PM 35.1906 -110.0506 279° West 400 460 38,000  Level Albuquerque Center
Sat 08:53:53 PM 35.2078 -110.1756 280° West 395 455 38,000  Level Albuquerque Center
Sat 08:54:55 PM 35.2261 -110.3236 279° West 393 452 38,000 -146 Level Albuquerque Center
Sat 08:55:56 PM 35.2422 -110.4508 279° West 394 453 37,700 -590 Descending Albuquerque Center
Sat 08:56:57 PM 35.2600 -110.5797 280° West 399 459 36,800 -927 Descending Albuquerque Center
Sat 08:57:59 PM 35.2800 -110.7328 279° West 404 465 35,800 -976 Descending Albuquerque Center
Sat 08:59:00 PM 35.2975 -110.8667 279° West 411 473 34,800 -878 Descending Albuquerque Center
Sat 09:00:02 PM 35.3153 -111.0011 279° West 417 480 34,000 -927 Descending Albuquerque Center
Sat 09:01:03 PM 35.3369 -111.1611 279° West 423 487 32,900 -984 Descending Albuquerque Center
Sat 09:02:04 PM 35.3561 -111.2989 280° West 426 490 32,000 -439 Descending Albuquerque Center
Sat 09:03:06 PM 35.3756 -111.4497 279° West 435 501 32,000  Level Albuquerque Center
Sat 09:04:07 PM 35.3944 -111.5925 279° West 435 501 32,000 -927 Level Albuquerque Center
Sat 09:05:09 PM 35.4122 -111.7350 279° West 430 495 30,100 -1,062 Descending Albuquerque Center
Sat 09:06:00 PM 35.4297 -111.8753 279° West 425 489 30,000 -54 Descending Los Angeles Center
Sat 09:07:01 PM 35.4467 -112.0092 279° West 414 476 30,000  Level Los Angeles Center
Sat 09:08:03 PM 35.4625 -112.1425 278° West 405 466 30,000  Level Los Angeles Center
Sat 09:09:04 PM 35.4794 -112.2825 278° West 411 473 30,000  Level Los Angeles Center
Sat 09:10:06 PM 35.4972 -112.4322 278° West 440 506 30,000  Level Los Angeles Center
Sat 09:11:07 PM 35.5153 -112.5794 279° West 443 510 30,000  Level Los Angeles Center
Sat 09:12:09 PM 35.5333 -112.7339 278° West 439 505 30,000  Level Los Angeles Center
Sat 09:13:10 PM 35.5539 -112.9114 278° West 437 503 30,000  Level Los Angeles Center
Sat 09:14:12 PM 35.5703 -113.0483 278° West 439 505 30,000  Level Los Angeles Center
Sat 09:15:13 PM 35.5864 -113.2025 277° West 449 517 30,000 -195 Level Los Angeles Center
Sat 09:16:15 PM 35.6022 -113.3436 278° West 443 510 29,600 -1,610 Descending Los Angeles Center
Sat 09:17:16 PM 35.6211 -113.5181 278° West 434 499 26,700 -2,732 Descending Los Angeles Center
Sat 09:18:18 PM 35.6406 -113.6569 280° West 420 483 24,000 -2,537 Descending Los Angeles Center
Sat 09:19:19 PM 35.6600 -113.7908 280° West 405 466 21,500 -2,537 Descending Los Angeles Center
Sat 09:20:21 PM 35.6789 -113.9239 280° West 400 460 18,800 -2,634 Descending Los Angeles Center
Sat 09:21:22 PM 35.6969 -114.0547 280° West 391 450 16,100 -2,634 Descending Los Angeles Center
Sat 09:22:24 PM 35.7161 -114.1961 280° West 381 438 13,400 -2,000 Descending Los Angeles Center
Sat 09:23:25 PM 35.7328 -114.3178 280° West 367 422 12,000 -683 Descending Los Angeles Center
Sat 09:24:27 PM 35.7889 -114.4042 309° West 342 394 12,000 -48 Level Los Angeles Center
Sat 09:25:29 PM 35.8656 -114.4406 339° North 305 351 11,900 -683 Descending Los Angeles Center
Sat 09:26:30 PM 35.9419 -114.4772 339° North 298 343 10,600 -1,317 Descending Los Angeles Center
Sat 09:27:32 PM 35.9989 -114.5700 307° West 293 337 9,200 -1,171 Descending Los Angeles Center
Sat 09:28:33 PM 36.0414 -114.6575 301° West 294 338 8,200 -634 Descending Los Angeles Center
Sat 09:29:35 PM 36.0775 -114.7406 298° West 286 329 7,900 -726 Descending Los Angeles Center
Sat 09:30:37 PM 36.0742 -114.8278 267° West 264 304 6,700 -1,268 Descending Los Angeles Center
Sat 09:31:38 PM 36.0742 -114.9156 270° West 259 298 5,300 -1,317 Descending Los Angeles Center
Sat 09:32:40 PM 36.0742 -114.9997 270° West 253 291 4,000 -1,122 Descending Los Angeles Center
Sat 09:33:41 PM 36.0744 -115.0633 270° West 214 246 3,000 -878 Descending Los Angeles Center
Sat 09:34:43 PM 36.0742 -115.1183 270° West 181 208 2,200 -774 Descending Los Angeles Center
Sat 09:36:00 PM 36.0667 -115.1500 270° West  Level FlightAware Approximate

Login

Don't have an account? Register now (free) for customized features, flight alerts, and more!